Time;durP1;ratioP1;P1;durP2;ratioP2;P2;SDS_P1;SDS_P2;PMS_P1;PMS_P2;Temp;Humidity;BMP_temperature;BMP_pressure;BME280_temperature;BME280_humidity;BME280_pressure;Samples;Min_cycle;Max_cycle;Signal;HPM_P1;HPM_P2
2021/12/14 00:00:16;;;;;;;33.65;30.73;;;8.10;92.90;;;;;;5073110;28;20752;-73
2021/12/14 00:02:43;;;;;;;31.35;28.38;;;8.20;92.50;;;;;;5073045;28;20254;-73
2021/12/14 00:05:11;;;;;;;50.55;31.45;;;8.10;93.10;;;;;;5073258;28;20314;-73
2021/12/14 00:07:38;;;;;;;51.40;30.25;;;8.00;93.20;;;;;;5073431;28;20628;-72
2021/12/14 00:10:17;;;;;;;31.98;28.95;;;8.00;93.20;;;;;;5072975;28;20257;-73
2021/12/14 00:12:56;;;;;;;31.65;28.70;;;8.00;93.80;;;;;;5072896;28;20275;-73
2021/12/14 00:15:24;;;;;;;32.47;29.73;;;8.00;93.70;;;;;;5073077;28;20360;-73
2021/12/14 00:17:54;;;;;;;31.85;29.13;;;8.00;93.30;;;;;;5072963;28;20200;-73
2021/12/14 00:20:26;;;;;;;29.80;27.20;;;8.00;93.20;;;;;;5073001;28;20206;-73
2021/12/14 00:25:42;;;;;;;31.67;28.80;;;8.00;92.50;;;;;;5072928;28;20194;-73
2021/12/14 00:28:13;;;;;;;32.20;29.30;;;8.00;93.70;;;;;;5072289;28;20286;-73
2021/12/14 00:30:43;;;;;;;31.30;28.70;;;8.00;93.50;;;;;;5072757;28;20582;-73
2021/12/14 00:33:13;;;;;;;29.58;26.98;;;8.00;93.40;;;;;;5072530;28;20292;-73
2021/12/14 00:35:42;;;;;;;31.48;28.52;;;8.00;93.10;;;;;;5072734;28;20257;-73
2021/12/14 00:38:10;;;;;;;31.80;28.83;;;8.00;92.80;;;;;;5072634;28;20206;-73
2021/12/14 00:40:41;;;;;;;30.67;28.08;;;7.90;92.80;;;;;;5072527;28;20661;-73
2021/12/14 00:43:08;;;;;;;29.93;27.47;;;8.00;92.70;;;;;;5071938;28;20223;-73
2021/12/14 00:45:38;;;;;;;30.25;27.45;;;8.00;92.70;;;;;;5072669;28;20533;-73
2021/12/14 00:48:08;;;;;;;206.48;41.90;;;8.00;92.80;;;;;;5072347;28;20203;-73
2021/12/14 00:50:36;;;;;;;29.13;26.52;;;8.00;93.90;;;;;;5072408;28;20680;-73
2021/12/14 00:53:04;;;;;;;29.45;26.85;;;8.00;96.60;;;;;;5072404;28;20210;-73
2021/12/14 00:55:36;;;;;;;29.10;26.40;;;7.90;95.10;;;;;;5072625;28;20199;-73
2021/12/14 00:58:05;;;;;;;29.25;26.60;;;8.00;94.30;;;;;;5072721;28;20196;-73
2021/12/14 01:00:34;;;;;;;28.50;25.65;;;7.90;93.70;;;;;;5072570;28;20198;-73
2021/12/14 01:03:03;;;;;;;27.20;24.95;;;7.90;93.50;;;;;;5072348;28;20192;-73
2021/12/14 01:05:34;;;;;;;30.25;27.35;;;8.00;93.30;;;;;;5072818;28;20210;-73
2021/12/14 01:08:02;;;;;;;29.13;26.63;;;8.00;92.90;;;;;;5072668;28;20199;-73
2021/12/14 01:10:32;;;;;;;29.23;26.60;;;8.00;93.40;;;;;;5072250;28;20192;-73
2021/12/14 01:13:04;;;;;;;29.13;26.70;;;8.00;93.00;;;;;;5072220;28;20290;-73
2021/12/14 01:15:51;;;;;;;28.80;26.40;;;7.90;93.00;;;;;;5072303;28;20253;-73
2021/12/14 01:18:31;;;;;;;28.88;26.35;;;7.90;93.00;;;;;;5072429;28;20200;-73
2021/12/14 01:21:12;;;;;;;27.63;25.23;;;7.80;93.10;;;;;;5072453;28;20214;-73
2021/12/14 01:23:39;;;;;;;55.85;28.70;;;7.90;92.90;;;;;;5072068;28;20220;-73
2021/12/14 01:26:11;;;;;;;28.55;26.05;;;7.90;96.50;;;;;;5072224;28;20294;-73
2021/12/14 01:28:41;;;;;;;27.60;25.15;;;7.80;95.00;;;;;;5072152;28;20732;-73
2021/12/14 01:31:14;;;;;;;29.50;27.00;;;7.80;95.30;;;;;;5072318;28;20211;-73
2021/12/14 01:33:47;;;;;;;29.50;26.80;;;7.80;94.90;;;;;;5071963;28;20247;-73
2021/12/14 01:36:25;;;;;;;29.08;26.55;;;7.80;93.90;;;;;;5072139;28;20196;-73
2021/12/14 01:39:22;;;;;;;28.35;25.90;;;7.80;93.70;;;;;;5072180;28;20654;-73
2021/12/14 01:41:54;;;;;;;28.38;25.70;;;7.80;93.60;;;;;;5075554;28;20193;-73
2021/12/14 01:44:21;;;;;;;27.98;25.65;;;7.80;93.80;;;;;;5075581;28;20300;-73
2021/12/14 01:46:53;;;;;;;27.33;24.90;;;7.80;95.00;;;;;;5075792;28;20227;-73
2021/12/14 01:49:20;;;;;;;27.53;25.03;;;7.90;94.40;;;;;;5075564;28;20200;-73
2021/12/14 01:51:52;;;;;;;28.40;25.90;;;7.90;93.60;;;;;;5075628;28;21025;-73
2021/12/14 01:54:22;;;;;;;27.27;24.90;;;7.90;93.90;;;;;;5075474;28;20220;-73
2021/12/14 01:56:49;;;;;;;27.35;25.05;;;7.90;93.70;;;;;;5075682;28;20200;-73
2021/12/14 01:59:22;;;;;;;26.85;24.70;;;7.90;93.20;;;;;;5075464;28;20638;-73
2021/12/14 02:01:57;;;;;;;31.38;25.50;;;7.90;93.20;;;;;;5075534;28;20549;-73
2021/12/14 02:04:26;;;;;;;44.88;27.55;;;7.90;94.50;;;;;;5075237;28;20254;-73
2021/12/14 02:06:57;;;;;;;30.30;27.45;;;7.90;94.60;;;;;;5075525;28;20283;-73
2021/12/14 02:09:27;;;;;;;29.23;26.23;;;7.90;95.70;;;;;;5075349;28;20211;-73
2021/12/14 02:11:57;;;;;;;27.92;25.52;;;7.90;95.60;;;;;;5075208;28;20315;-73
2021/12/14 02:14:25;;;;;;;27.58;25.20;;;8.00;94.50;;;;;;5075067;28;20299;-73
2021/12/14 02:16:56;;;;;;;29.52;26.83;;;7.90;94.00;;;;;;5075192;28;20200;-73
2021/12/14 02:19:23;;;;;;;28.80;26.17;;;7.80;93.70;;;;;;5075330;28;20196;-73
2021/12/14 02:21:54;;;;;;;27.10;24.70;;;7.90;93.60;;;;;;5075170;28;20202;-73
2021/12/14 02:24:22;;;;;;;74.03;28.88;;;7.90;94.10;;;;;;5074849;28;20220;-73
2021/12/14 02:26:52;;;;;;;28.30;25.83;;;7.90;93.30;;;;;;5075062;28;20206;-73
2021/12/14 02:29:26;;;;;;;27.23;25.08;;;7.90;93.70;;;;;;5074979;28;20666;-73
2021/12/14 02:31:55;;;;;;;27.85;25.45;;;7.90;93.90;;;;;;5075007;28;20226;-73
2021/12/14 02:34:22;;;;;;;28.10;25.70;;;7.80;93.50;;;;;;5074862;28;20314;-72
2021/12/14 02:36:52;;;;;;;28.00;25.45;;;7.80;93.50;;;;;;5074920;28;20203;-72
2021/12/14 02:39:46;;;;;;;27.90;25.45;;;7.80;93.70;;;;;;5074722;28;20665;-72
2021/12/14 02:42:14;;;;;;;32.35;26.17;;;7.80;94.00;;;;;;5074327;28;20669;-72
2021/12/14 02:44:45;;;;;;;78.60;28.88;;;7.80;94.70;;;;;;5074555;28;20298;-72
2021/12/14 02:47:16;;;;;;;1999.90;471.30;;;7.90;93.70;;;;;;5074354;28;20649;-72
2021/12/14 02:49:45;;;;;;;27.67;25.05;;;7.90;98.60;;;;;;5074618;28;20274;-72
2021/12/14 02:52:20;;;;;;;27.08;24.45;;;7.90;97.50;;;;;;5074075;28;20222;-73
2021/12/14 02:54:50;;;;;;;27.58;25.02;;;7.80;96.40;;;;;;5074389;28;20220;-72
2021/12/14 02:57:21;;;;;;;26.80;24.50;;;7.80;95.60;;;;;;5074588;28;20283;-73
2021/12/14 02:59:49;;;;;;;27.38;24.88;;;7.80;94.70;;;;;;5074424;28;20196;-72
2021/12/14 03:02:19;;;;;;;27.33;24.77;;;7.90;94.40;;;;;;5074346;28;20198;-72
2021/12/14 03:04:48;;;;;;;26.48;23.98;;;7.90;94.20;;;;;;5074245;28;20306;-73
2021/12/14 03:07:24;;;;;;;26.73;24.35;;;7.80;95.20;;;;;;5074358;28;20278;-72
2021/12/14 03:09:57;;;;;;;28.30;25.65;;;7.80;94.90;;;;;;5074299;28;20294;-72
2021/12/14 03:12:31;;;;;;;28.17;25.45;;;7.80;93.90;;;;;;5074062;28;20712;-72
2021/12/14 03:15:01;;;;;;;26.20;23.90;;;7.80;93.50;;;;;;5074090;28;20226;-72
2021/12/14 03:17:29;;;;;;;27.58;24.83;;;7.70;93.30;;;;;;5074184;28;20286;-72
2021/12/14 03:19:58;;;;;;;27.60;25.20;;;7.80;93.00;;;;;;5074035;28;20196;-72
2021/12/14 03:22:33;;;;;;;26.30;24.17;;;7.80;93.50;;;;;;5073850;28;20192;-72
2021/12/14 03:25:00;;;;;;;154.63;34.90;;;7.80;93.10;;;;;;5073797;28;20215;-72
2021/12/14 03:27:27;;;;;;;28.08;25.17;;;7.80;94.20;;;;;;5073928;28;20670;-72
2021/12/14 03:29:54;;;;;;;26.08;23.73;;;7.80;94.60;;;;;;5073941;28;20199;-72
2021/12/14 03:32:21;;;;;;;26.40;24.30;;;7.70;93.70;;;;;;5073699;28;20212;-72
2021/12/14 03:34:48;;;;;;;27.15;24.83;;;7.70;93.60;;;;;;5073409;28;20310;-72
2021/12/14 03:37:20;;;;;;;26.63;24.15;;;7.70;93.50;;;;;;5073672;28;20196;-73
2021/12/14 03:39:51;;;;;;;152.40;35.55;;;7.70;93.10;;;;;;5073583;28;20230;-72
2021/12/14 03:42:23;;;;;;;28.38;25.60;;;7.60;93.80;;;;;;5073240;28;20595;-72
2021/12/14 03:44:54;;;;;;;28.35;25.77;;;7.80;93.50;;;;;;5073461;28;20303;-72
2021/12/14 03:47:25;;;;;;;26.98;24.58;;;7.80;92.20;;;;;;5073137;28;20200;-72
2021/12/14 03:49:56;;;;;;;25.70;23.35;;;7.80;92.70;;;;;;5073582;28;20196;-72
2021/12/14 03:52:26;;;;;;;26.73;24.42;;;7.70;92.90;;;;;;5073385;28;20246;-72
2021/12/14 03:54:55;;;;;;;26.30;24.10;;;7.70;92.70;;;;;;5073236;28;20212;-72
2021/12/14 03:57:23;;;;;;;25.85;23.83;;;7.60;92.50;;;;;;5073405;28;20203;-72
2021/12/14 03:59:50;;;;;;;24.00;22.20;;;7.70;92.40;;;;;;5073243;28;20287;-72
2021/12/14 04:02:18;;;;;;;23.10;21.40;;;7.70;92.40;;;;;;5072467;28;20254;-72
2021/12/14 04:04:50;;;;;;;24.08;22.05;;;7.70;92.40;;;;;;5072950;28;20307;-72
2021/12/14 04:07:18;;;;;;;22.45;20.83;;;7.60;92.30;;;;;;5073170;28;20200;-72
2021/12/14 04:09:45;;;;;;;24.15;22.45;;;7.60;92.90;;;;;;5073030;28;20200;-72
2021/12/14 04:12:17;;;;;;;22.00;20.60;;;7.60;92.40;;;;;;5072872;28;20216;-72
2021/12/14 04:14:47;;;;;;;24.55;22.73;;;7.50;92.20;;;;;;5072908;28;20220;-73
2021/12/14 04:17:14;;;;;;;24.90;22.67;;;7.50;92.20;;;;;;5073013;28;20196;-73
2021/12/14 04:19:42;;;;;;;57.00;25.42;;;7.50;92.60;;;;;;5073160;28;20196;-72
2021/12/14 04:22:12;;;;;;;45.47;23.45;;;7.40;94.10;;;;;;5072880;28;20198;-72
2021/12/14 04:24:41;;;;;;;774.15;94.63;;;7.50;94.90;;;;;;5072678;28;20696;-72
2021/12/14 04:27:12;;;;;;;24.33;22.55;;;7.60;94.80;;;;;;5072855;28;20291;-72
2021/12/14 04:29:41;;;;;;;26.33;24.33;;;7.60;95.20;;;;;;5072800;28;20196;-72
2021/12/14 04:32:10;;;;;;;24.73;23.02;;;7.60;94.20;;;;;;5072652;28;20220;-72
2021/12/14 04:34:37;;;;;;;25.08;23.20;;;7.60;92.70;;;;;;5072557;28;20219;-72
2021/12/14 04:37:05;;;;;;;24.90;22.90;;;7.60;92.10;;;;;;5072850;28;20203;-72
2021/12/14 04:39:41;;;;;;;24.33;22.63;;;7.50;91.60;;;;;;5072489;28;20721;-72
2021/12/14 04:53:42;;;;;;;25.20;23.42;;;7.40;93.40;;;;;;5072525;28;20599;-72
2021/12/14 04:56:12;;;;;;;23.55;22.02;;;7.30;91.90;;;;;;5072556;28;20202;-72
2021/12/14 04:58:43;;;;;;;23.42;21.85;;;7.20;91.50;;;;;;5072699;28;20206;-72
2021/12/14 05:01:13;;;;;;;21.70;20.13;;;7.30;91.70;;;;;;5072646;28;20204;-72
2021/12/14 05:03:44;;;;;;;23.85;22.05;;;7.30;91.20;;;;;;5072360;28;20222;-72
2021/12/14 05:06:16;;;;;;;236.02;41.42;;;7.30;92.10;;;;;;5072516;28;20265;-72
2021/12/14 05:11:31;;;;;;;23.27;21.65;;;7.20;93.60;;;;;;5072558;28;20195;-72
2021/12/14 05:14:04;;;;;;;22.83;21.33;;;7.20;93.90;;;;;;5073796;28;20234;-72
2021/12/14 05:16:33;;;;;;;22.73;21.20;;;7.20;92.50;;;;;;5076603;28;20657;-72
2021/12/14 05:19:04;;;;;;;21.60;20.13;;;7.20;92.10;;;;;;5076370;28;20191;-72
2021/12/14 05:21:35;;;;;;;25.13;23.20;;;7.10;91.80;;;;;;5076342;28;20284;-72
2021/12/14 05:24:07;;;;;;;21.17;19.77;;;7.10;91.40;;;;;;5076136;28;20295;-72
2021/12/14 05:26:34;;;;;;;26.33;24.35;;;7.00;91.00;;;;;;5076715;28;20302;-72
2021/12/14 05:29:02;;;;;;;22.95;21.33;;;6.90;91.00;;;;;;5076181;28;20752;-72
2021/12/14 05:31:29;;;;;;;25.30;23.50;;;6.80;91.30;;;;;;5076155;28;20794;-72
2021/12/14 05:33:58;;;;;;;22.73;21.15;;;6.50;91.80;;;;;;5075881;28;20306;-72
2021/12/14 05:36:26;;;;;;;25.13;23.42;;;6.30;93.00;;;;;;5075997;28;20330;-72
2021/12/14 05:38:59;;;;;;;24.73;23.02;;;6.10;94.00;;;;;;5076022;28;20287;-72
2021/12/14 05:44:16;;;;;;;24.98;23.08;;;6.10;94.40;;;;;;5075618;28;20218;-72
2021/12/14 05:46:49;;;;;;;24.15;22.40;;;6.10;94.30;;;;;;5075897;28;20585;-72
2021/12/14 05:49:20;;;;;;;22.42;20.83;;;6.20;94.10;;;;;;5075615;28;20553;-72
2021/12/14 05:51:48;;;;;;;21.83;20.25;;;6.20;94.50;;;;;;5075751;28;20208;-72
2021/12/14 05:54:20;;;;;;;22.52;20.60;;;6.30;93.90;;;;;;5075444;28;20224;-72
2021/12/14 05:56:47;;;;;;;23.60;21.90;;;6.30;93.80;;;;;;5075746;28;20250;-72
2021/12/14 05:59:19;;;;;;;25.80;23.75;;;6.30;93.80;;;;;;5075607;28;20207;-72
2021/12/14 06:01:46;;;;;;;23.67;21.95;;;6.40;93.70;;;;;;5075696;28;20200;-72
2021/12/14 06:04:13;;;;;;;23.67;21.98;;;6.50;93.30;;;;;;5075244;28;20303;-72
2021/12/14 06:06:44;;;;;;;22.05;20.55;;;6.60;92.70;;;;;;5075661;28;20214;-72
2021/12/14 06:09:15;;;;;;;22.30;20.80;;;6.60;92.30;;;;;;5075457;28;20204;-72
2021/12/14 06:11:44;;;;;;;23.48;21.73;;;6.50;92.50;;;;;;5075534;28;20358;-72
2021/12/14 06:14:17;;;;;;;21.38;19.98;;;6.50;92.70;;;;;;5075091;28;20303;-72
2021/12/14 06:16:45;;;;;;;23.35;21.83;;;6.50;92.30;;;;;;5075333;28;20666;-72
2021/12/14 06:19:16;;;;;;;22.45;20.95;;;6.50;92.40;;;;;;5075395;28;20549;-72
2021/12/14 06:21:46;;;;;;;23.40;21.85;;;6.50;92.10;;;;;;5075219;28;20200;-72
2021/12/14 06:24:13;;;;;;;22.95;21.38;;;6.60;92.10;;;;;;5075013;28;20720;-72
2021/12/14 06:26:44;;;;;;;22.92;21.33;;;6.60;92.00;;;;;;5074368;28;20196;-72
2021/12/14 06:29:14;;;;;;;22.58;21.08;;;6.70;91.40;;;;;;5075029;28;20204;-72
2021/12/14 06:31:41;;;;;;;24.10;22.48;;;6.60;90.90;;;;;;5075137;28;20206;-72
2021/12/14 06:34:21;;;;;;;23.00;21.48;;;6.50;91.20;;;;;;5074553;28;20231;-72
2021/12/14 06:37:29;;;;;;;25.45;23.75;;;6.40;91.70;;;;;;5075028;28;20204;-72
2021/12/14 06:40:06;;;;;;;21.77;20.40;;;6.30;91.80;;;;;;5074859;28;20204;-72
2021/12/14 06:42:37;;;;;;;23.92;22.33;;;6.30;91.80;;;;;;5074554;28;20192;-72
2021/12/14 06:45:11;;;;;;;24.40;23.00;;;6.30;91.60;;;;;;5074651;28;20219;-72
2021/12/14 06:47:38;;;;;;;23.50;21.90;;;6.40;91.40;;;;;;5074489;28;20305;-72
2021/12/14 06:50:10;;;;;;;26.00;24.40;;;6.30;91.30;;;;;;5074724;28;20675;-72
2021/12/14 06:52:39;;;;;;;24.13;22.52;;;6.30;91.70;;;;;;5074501;28;20215;-72
2021/12/14 06:55:07;;;;;;;24.05;22.45;;;6.30;91.70;;;;;;5074353;28;20302;-72
2021/12/14 06:57:34;;;;;;;24.77;22.98;;;6.20;91.60;;;;;;5074713;28;20195;-72
2021/12/14 07:00:02;;;;;;;24.67;23.00;;;6.30;91.70;;;;;;5074676;28;20203;-72
2021/12/14 07:02:29;;;;;;;24.83;23.23;;;6.30;91.60;;;;;;5074555;28;20198;-72
2021/12/14 07:04:56;;;;;;;24.38;22.75;;;6.20;91.70;;;;;;5074212;28;20227;-72
2021/12/14 07:07:25;;;;;;;24.92;23.02;;;6.20;92.10;;;;;;5074301;28;20192;-72
2021/12/14 07:09:55;;;;;;;23.55;22.13;;;6.30;91.90;;;;;;5074107;28;20287;-72
2021/12/14 07:12:25;;;;;;;25.92;24.00;;;6.30;91.60;;;;;;5074131;28;20207;-72
2021/12/14 07:15:09;;;;;;;23.20;21.60;;;6.40;91.30;;;;;;5074195;28;20212;-72
2021/12/14 07:17:42;;;;;;;25.27;23.50;;;6.30;91.30;;;;;;5074005;28;20282;-72
2021/12/14 07:20:24;;;;;;;26.27;24.55;;;6.40;90.90;;;;;;5074011;28;20227;-72
2021/12/14 07:22:53;;;;;;;23.88;22.25;;;6.40;90.60;;;;;;5073899;28;20196;-72
2021/12/14 07:25:28;;;;;;;24.48;22.88;;;6.30;90.70;;;;;;5073960;28;20275;-72
2021/12/14 07:27:56;;;;;;;25.00;23.33;;;6.30;90.60;;;;;;5073964;28;20763;-72
2021/12/14 07:30:27;;;;;;;25.02;23.45;;;6.30;90.70;;;;;;5073753;28;20204;-72
2021/12/14 07:33:01;;;;;;;24.67;22.92;;;6.30;90.60;;;;;;5073492;28;20219;-72
2021/12/14 07:35:36;;;;;;;23.58;22.05;;;6.40;90.50;;;;;;5073823;28;20576;-72
2021/12/14 07:38:23;;;;;;;26.05;24.35;;;6.50;90.10;;;;;;5073911;28;20196;-72
2021/12/14 07:40:58;;;;;;;26.05;24.35;;;6.50;90.10;;;;;;5073406;28;20322;-72
2021/12/14 07:43:31;;;;;;;25.35;23.55;;;6.50;90.00;;;;;;5072895;28;20284;-72
2021/12/14 07:46:00;;;;;;;24.35;22.73;;;6.40;90.10;;;;;;5073670;28;20283;-72
2021/12/14 07:48:41;;;;;;;27.45;25.65;;;6.30;89.90;;;;;;5073136;28;20295;-72
2021/12/14 07:51:08;;;;;;;25.10;23.30;;;6.30;90.10;;;;;;5073358;28;20557;-72
2021/12/14 07:53:40;;;;;;;25.98;24.08;;;6.30;90.20;;;;;;5073017;28;20224;-72
2021/12/14 07:56:10;;;;;;;24.02;22.42;;;6.40;90.30;;;;;;5073594;28;20278;-72
2021/12/14 07:58:41;;;;;;;24.60;22.95;;;6.40;90.60;;;;;;5073310;28;20235;-72
2021/12/14 08:01:10;;;;;;;24.33;22.73;;;6.60;89.90;;;;;;5073355;28;20250;-73
2021/12/14 08:03:37;;;;;;;22.88;21.48;;;6.60;89.80;;;;;;5073008;28;20212;-73
2021/12/14 08:06:07;;;;;;;23.85;22.23;;;6.70;89.20;;;;;;5073068;28;20196;-73
2021/12/14 08:08:42;;;;;;;25.38;23.77;;;6.80;89.00;;;;;;5073073;28;20200;-73
2021/12/14 08:14:11;;;;;;;25.67;23.98;;;6.70;88.70;;;;;;5061793;28;20247;-73
2021/12/14 08:16:42;;;;;;;26.02;24.33;;;6.50;89.80;;;;;;5073059;28;20199;-73
2021/12/14 08:19:14;;;;;;;27.52;25.85;;;6.40;90.30;;;;;;5072992;28;20287;-72
2021/12/14 08:21:43;;;;;;;25.55;23.88;;;6.60;89.20;;;;;;5072904;28;20658;-73
2021/12/14 08:24:10;;;;;;;27.02;25.15;;;6.50;89.60;;;;;;5072642;28;20222;-73
2021/12/14 08:26:42;;;;;;;28.45;26.50;;;6.50;89.70;;;;;;5072925;28;20662;-73
2021/12/14 08:29:14;;;;;;;27.00;25.30;;;6.60;89.50;;;;;;5072820;28;20195;-73
2021/12/14 08:31:45;;;;;;;26.30;24.65;;;6.60;89.60;;;;;;5072822;28;20250;-73
2021/12/14 08:34:18;;;;;;;24.17;22.58;;;6.70;89.30;;;;;;5072519;28;20766;-73
2021/12/14 08:36:48;;;;;;;26.75;24.95;;;6.70;88.60;;;;;;5073059;28;20199;-72
2021/12/14 08:39:18;;;;;;;27.17;25.48;;;6.80;88.30;;;;;;5072574;28;20196;-73
2021/12/14 08:41:51;;;;;;;25.27;23.67;;;6.80;87.90;;;;;;5072518;28;20196;-73
2021/12/14 08:44:33;;;;;;;26.02;24.42;;;6.80;88.50;;;;;;5072667;28;20223;-73
2021/12/14 08:47:00;;;;;;;25.50;23.80;;;6.90;88.00;;;;;;5072657;28;20199;-73
2021/12/14 08:49:27;;;;;;;26.27;24.48;;;7.00;87.60;;;;;;5071902;28;20561;-73
2021/12/14 08:51:54;;;;;;;24.95;23.35;;;7.10;87.50;;;;;;5072391;28;20582;-73
2021/12/14 08:54:25;;;;;;;25.65;23.92;;;7.10;87.60;;;;;;5072227;28;20216;-73
2021/12/14 08:56:57;;;;;;;25.20;23.50;;;7.20;87.50;;;;;;5072621;28;20211;-73
2021/12/14 08:59:25;;;;;;;25.67;24.08;;;7.30;87.00;;;;;;5072572;28;20202;-73
2021/12/14 09:01:53;;;;;;;25.98;24.13;;;7.50;86.70;;;;;;5072510;28;20200;-73
2021/12/14 09:04:24;;;;;;;26.92;25.35;;;7.60;86.30;;;;;;5072292;28;20578;-73
2021/12/14 09:06:57;;;;;;;24.65;23.05;;;7.80;85.60;;;;;;5072687;28;20202;-73
2021/12/14 09:09:24;;;;;;;25.30;23.70;;;7.70;85.20;;;;;;5072488;28;20208;-73
2021/12/14 09:11:58;;;;;;;25.73;24.15;;;7.80;85.10;;;;;;5072424;28;20192;-73
2021/12/14 09:14:25;;;;;;;25.83;24.27;;;7.90;84.60;;;;;;5072098;28;20219;-73
2021/12/14 09:16:57;;;;;;;26.73;24.92;;;7.80;84.50;;;;;;5072317;28;20199;-73
2021/12/14 09:19:27;;;;;;;26.33;24.73;;;7.90;84.40;;;;;;5072458;28;20231;-73
2021/12/14 09:21:57;;;;;;;25.85;24.25;;;8.00;83.80;;;;;;5072415;28;20199;-73
2021/12/14 09:24:27;;;;;;;27.25;25.55;;;8.00;83.20;;;;;;5072119;28;20216;-73
2021/12/14 09:26:58;;;;;;;26.17;24.58;;;8.00;83.70;;;;;;5072400;28;20535;-73
2021/12/14 09:29:28;;;;;;;26.98;25.48;;;8.00;83.50;;;;;;5072325;28;20202;-72
2021/12/14 09:31:58;;;;;;;25.20;23.50;;;8.20;82.70;;;;;;5072278;28;20295;-73
2021/12/14 09:34:29;;;;;;;27.10;25.50;;;8.00;83.50;;;;;;5071818;28;20216;-73
2021/12/14 09:36:57;;;;;;;26.45;24.58;;;8.10;83.70;;;;;;5072338;28;20257;-73
2021/12/14 09:39:29;;;;;;;27.17;25.52;;;8.20;83.10;;;;;;5072034;28;20199;-73
2021/12/14 09:42:00;;;;;;;26.77;25.27;;;8.40;83.10;;;;;;5071792;28;20207;-72
2021/12/14 09:44:31;;;;;;;26.42;24.38;;;8.40;83.00;;;;;;5071894;28;20212;-72
2021/12/14 09:47:04;;;;;;;26.97;25.13;;;8.60;82.70;;;;;;5072177;28;20730;-73
2021/12/14 09:49:32;;;;;;;26.90;25.27;;;8.70;81.90;;;;;;5071764;28;20957;-72
2021/12/14 09:52:02;;;;;;;25.20;23.60;;;8.70;81.50;;;;;;5071903;28;20774;-72
2021/12/14 09:54:30;;;;;;;27.20;25.40;;;8.80;81.20;;;;;;5071649;28;20577;-72
2021/12/14 09:57:03;;;;;;;25.43;23.93;;;8.90;81.00;;;;;;5072019;28;20482;-72
2021/12/14 09:59:30;;;;;;;28.73;26.83;;;8.90;80.90;;;;;;5071933;28;20460;-73
2021/12/14 10:02:00;;;;;;;28.07;26.27;;;8.70;80.80;;;;;;5074860;28;20450;-73
2021/12/14 10:04:34;;;;;;;28.10;26.00;;;8.70;81.40;;;;;;5075338;28;20466;-72
2021/12/14 10:07:03;;;;;;;27.70;25.70;;;8.70;81.50;;;;;;5075604;28;20939;-73
2021/12/14 10:09:38;;;;;;;29.00;27.20;;;8.80;81.30;;;;;;5075388;28;20465;-72
2021/12/14 10:12:19;;;;;;;29.33;27.40;;;8.90;81.10;;;;;;5075370;28;20488;-73
2021/12/14 10:14:48;;;;;;;28.00;26.20;;;9.10;80.80;;;;;;5074994;28;20477;-72
2021/12/14 10:17:17;;;;;;;27.63;25.93;;;9.20;80.20;;;;;;5075216;28;20449;-73
2021/12/14 10:19:45;;;;;;;27.50;25.90;;;9.30;79.90;;;;;;5075246;28;20977;-73
2021/12/14 10:22:15;;;;;;;27.90;26.20;;;9.30;79.50;;;;;;5075151;28;20450;-73
2021/12/14 10:24:42;;;;;;;27.57;25.77;;;9.40;79.30;;;;;;5074961;28;20553;-72
2021/12/14 10:27:14;;;;;;;27.33;25.50;;;9.40;79.10;;;;;;5075239;28;20450;-73
2021/12/14 10:29:42;;;;;;;29.00;27.23;;;9.40;79.20;;;;;;5075202;28;20460;-73
2021/12/14 10:32:13;;;;;;;28.63;26.90;;;9.60;78.60;;;;;;5074985;28;20543;-72
2021/12/14 10:34:50;;;;;;;28.23;26.33;;;9.60;78.10;;;;;;5074817;28;20474;-72
2021/12/14 10:37:23;;;;;;;29.30;27.40;;;9.60;78.50;;;;;;5074962;28;20483;-72
2021/12/14 10:43:07;;;;;;;29.07;26.77;;;9.80;77.80;;;;;;5074509;28;20469;-73
2021/12/14 10:45:34;;;;;;;28.97;27.13;;;9.80;77.70;;;;;;5075322;28;20481;-74
2021/12/14 10:48:01;;;;;;;29.23;27.40;;;9.70;77.20;;;;;;5074595;28;20534;-73
2021/12/14 10:50:32;;;;;;;29.17;27.20;;;9.50;77.80;;;;;;5074614;28;20450;-73
2021/12/14 10:53:02;;;;;;;28.17;26.27;;;9.40;78.60;;;;;;5074553;28;20454;-73
2021/12/14 10:55:35;;;;;;;29.27;27.20;;;9.40;78.60;;;;;;5074504;28;20474;-73
2021/12/14 10:58:06;;;;;;;27.87;25.97;;;9.60;78.30;;;;;;5074700;28;20936;-73
2021/12/14 11:00:40;;;;;;;28.77;26.77;;;9.60;78.40;;;;;;5074483;28;20537;-73
2021/12/14 11:03:11;;;;;;;27.50;25.87;;;9.60;78.80;;;;;;5074167;28;20814;-73
2021/12/14 11:05:40;;;;;;;28.07;26.17;;;9.60;79.40;;;;;;5074385;28;20456;-73
2021/12/14 11:08:19;;;;;;;29.50;27.57;;;9.60;80.20;;;;;;5074390;28;20501;-73
2021/12/14 11:10:46;;;;;;;28.80;26.77;;;9.70;78.20;;;;;;5074306;28;20545;-73
2021/12/14 11:13:15;;;;;;;28.50;26.53;;;9.50;79.60;;;;;;5073693;28;20462;-73
2021/12/14 11:15:45;;;;;;;27.50;25.70;;;9.40;79.20;;;;;;5074300;28;20480;-73
2021/12/14 11:18:16;;;;;;;30.40;28.50;;;9.50;78.60;;;;;;5074292;28;20537;-73
2021/12/14 11:20:49;;;;;;;30.70;28.60;;;9.50;78.50;;;;;;5074219;28;20545;-73
2021/12/14 11:23:19;;;;;;;29.37;27.57;;;9.60;78.00;;;;;;5073914;28;20492;-73
2021/12/14 11:25:54;;;;;;;27.90;26.20;;;9.60;77.50;;;;;;5074053;28;20453;-73
2021/12/14 11:28:25;;;;;;;29.13;26.87;;;9.60;77.70;;;;;;5074111;28;20456;-73
2021/12/14 11:30:57;;;;;;;29.20;27.37;;;9.70;77.70;;;;;;5074008;28;20458;-73
2021/12/14 11:33:28;;;;;;;30.50;28.50;;;9.60;78.10;;;;;;5073886;28;20539;-73
2021/12/14 11:36:01;;;;;;;27.23;25.33;;;9.70;77.40;;;;;;5073964;28;20478;-72
2021/12/14 11:38:36;;;;;;;29.33;27.40;;;9.80;77.40;;;;;;5073784;28;20539;-72
2021/12/14 11:41:20;;;;;;;29.87;27.77;;;9.80;77.20;;;;;;5073641;28;20950;-73
2021/12/14 11:43:51;;;;;;;29.27;27.10;;;9.70;77.00;;;;;;5073349;28;20486;-72
2021/12/14 11:46:19;;;;;;;28.70;26.70;;;9.60;77.30;;;;;;5073751;28;20450;-72
2021/12/14 11:48:46;;;;;;;29.80;27.43;;;9.50;78.20;;;;;;5073396;28;20545;-72
2021/12/14 11:51:14;;;;;;;27.80;26.10;;;9.50;78.40;;;;;;5073736;28;20454;-72
2021/12/14 11:53:49;;;;;;;29.07;27.07;;;9.50;78.30;;;;;;5073192;28;20560;-72
2021/12/14 11:56:18;;;;;;;29.80;27.70;;;9.70;78.00;;;;;;5073891;28;20507;-72
2021/12/14 11:58:49;;;;;;;29.83;27.37;;;9.80;78.10;;;;;;5073423;28;20831;-73
2021/12/14 12:01:20;;;;;;;29.03;27.17;;;10.00;77.10;;;;;;5073307;28;20457;-73
2021/12/14 12:03:53;;;;;;;29.20;27.30;;;9.90;77.10;;;;;;5072986;28;20476;-73
2021/12/14 12:06:43;;;;;;;31.33;29.20;;;10.10;76.90;;;;;;5073241;28;20454;-73
2021/12/14 12:09:31;;;;;;;30.20;28.00;;;10.20;76.60;;;;;;5073073;28;20442;-73
2021/12/14 12:12:07;;;;;;;30.90;28.77;;;10.50;75.60;;;;;;5073231;28;20819;-73
2021/12/14 12:14:37;;;;;;;31.40;29.30;;;10.40;75.80;;;;;;5072751;28;20975;-73
2021/12/14 12:17:16;;;;;;;30.33;28.43;;;10.40;76.10;;;;;;5073185;28;20528;-73
2021/12/14 12:19:53;;;;;;;32.17;30.07;;;10.60;75.60;;;;;;5072968;28;20460;-74
2021/12/14 12:22:20;;;;;;;29.93;28.10;;;10.50;75.10;;;;;;5072984;28;20819;-73
2021/12/14 12:24:50;;;;;;;30.80;28.57;;;10.40;75.40;;;;;;5072112;28;20784;-72
2021/12/14 12:27:28;;;;;;;30.17;28.23;;;10.40;75.50;;;;;;5072936;28;20450;-73
2021/12/14 12:30:13;;;;;;;31.53;29.43;;;10.50;75.70;;;;;;5072941;28;20549;-73
2021/12/14 12:32:41;;;;;;;31.63;29.43;;;10.50;76.40;;;;;;5072835;28;20462;-72
2021/12/14 12:35:22;;;;;;;32.00;29.90;;;10.50;75.70;;;;;;5072677;28;20482;-73
2021/12/14 12:37:49;;;;;;;29.10;27.20;;;10.50;75.80;;;;;;5072887;28;20453;-72
2021/12/14 12:40:30;;;;;;;31.30;29.17;;;10.40;75.70;;;;;;5072531;28;20454;-73
2021/12/14 12:43:19;;;;;;;31.20;28.83;;;10.30;75.80;;;;;;5072184;28;20438;-73
2021/12/14 12:45:59;;;;;;;33.70;31.30;;;10.30;76.50;;;;;;5072806;28;20456;-73
2021/12/14 12:49:02;;;;;;;31.73;29.30;;;10.40;76.30;;;;;;5072330;28;20449;-73
2021/12/14 12:51:55;;;;;;;31.90;29.70;;;10.40;76.40;;;;;;5072469;28;20456;-74
2021/12/14 12:54:35;;;;;;;31.40;29.30;;;10.20;76.80;;;;;;5062202;28;20477;-73
2021/12/14 12:57:30;;;;;;;34.50;32.00;;;10.20;77.50;;;;;;5072716;28;20472;-73
2021/12/14 13:00:11;;;;;;;32.40;30.00;;;10.10;77.60;;;;;;5072539;28;20834;-73
2021/12/14 13:02:42;;;;;;;33.53;31.13;;;10.10;78.80;;;;;;5072557;28;20449;-73
2021/12/14 13:05:26;;;;;;;31.43;29.13;;;10.10;77.90;;;;;;5072384;28;20462;-73
2021/12/14 13:07:57;;;;;;;32.83;30.43;;;9.90;78.40;;;;;;5072389;28;20462;-73
2021/12/14 13:10:32;;;;;;;32.20;30.07;;;9.90;78.30;;;;;;5072456;28;20454;-73
2021/12/14 13:13:07;;;;;;;32.43;30.33;;;10.00;78.40;;;;;;5072209;28;20454;-73
2021/12/14 13:15:57;;;;;;;32.83;30.70;;;10.10;78.00;;;;;;5072267;28;20987;-73
2021/12/14 13:18:50;;;;;;;33.43;30.87;;;9.90;78.50;;;;;;5072326;28;20476;-73
2021/12/14 13:21:24;;;;;;;33.17;30.67;;;9.90;78.90;;;;;;5072473;28;20449;-73
2021/12/14 13:24:00;;;;;;;32.87;30.07;;;9.90;78.90;;;;;;5072160;28;20461;-73